Nearby METAR Reports

 

KPBH - Phillips, Wisconsin, USA
Distance from station: SE 13mi, 21km
Updated: 12/03/2020 4:55am
Overcast
Overcast
 Wind from WSW
Wind: WSW 5 mph , 7 km/h
Temperature: 28°F , -2°C
Wind Chill: 22°F , -6°C
Dew Point: 25°F , -4°C
Humidity: 86%
Barometer: 30.03 inHg , 1016.9 hPa
Clouds: Overcast
Visibility: 10 miles , 16 km
Cloud details: Overcast 1400 ft
2020/12/03 10:55 KPBH 031055Z AUTO 24004KT 10SM OVC014 M02/M04 A3003 RMK AO2 T10171040
KRCX - Ladysmith/Rusk, Wisconsin, USA
Distance from station: SW 29mi, 46km
Updated: 12/03/2020 4:55am

 Wind from SSW
Wind: SSW 5 mph , 7 km/h
Temperature: 27°F , -3°C
Wind Chill: 21°F , -6°C
Dew Point: 25°F , -4°C
Humidity: 93%
Barometer: 30.08 inHg , 1018.6 hPa
Visibility: 10 miles , 16 km
2020/12/03 10:55 KRCX 031055Z AUTO 21004KT 10SM M03/M04 A3008 RMK AO2 T10271040
 
KD25 - Manitowish Water, Wisconsin, USA
Distance from station: ENE 41mi, 66km
Updated: 12/03/2020 4:55am
Partly cloudy
Partly cloudy
 Wind from W
Wind: W 6 mph , 9 km/h
Temperature: 27°F , -3°C
Wind Chill: 20°F , -7°C
Dew Point: 25°F , -4°C
Humidity: 93%
Barometer: 29.99 inHg , 1015.6 hPa
Clouds: Partly cloudy
Visibility: 10 miles , 16 km
Cloud details: Partly cloudy 1300 ft
2020/12/03 10:55 KD25 031055Z AUTO 26005KT 10SM SCT013 M03/M04 A2999 RMK AO2 T10281044
KHYR - Hayward, Wisconsin, USA
Distance from station: WNW 42mi, 68km
Updated: 12/03/2020 4:53am
Partly cloudy
Partly cloudy
 Wind from SW
Wind: SW 6 mph , 9 km/h
Temperature: 28°F , -2°C
Wind Chill: 21°F , -6°C
Dew Point: 25°F , -4°C
Humidity: 86%
Barometer: 30.05 inHg , 1017.6 hPa
Clouds: Partly cloudy
Visibility: 10 miles , 16 km
Cloud details: Partly cloudy 1000 ft
2020/12/03 10:53 KHYR 031053Z AUTO 22005KT 10SM SCT010 M02/M04 A3005 RMK AO2 SLP192 T10221044
 
KARV - Minocqua/Woodruf, Wisconsin, USA
Distance from station: E 44mi, 71km
Updated: 12/03/2020 4:55am
Mostly cloudy
Mostly cloudy
 Wind from W
Wind: W 7 mph , 11 km/h
Temperature: 32°F , 0°C
Wind Chill: 25°F , -4°C
Dew Point: 23°F , -5°C
Humidity: 69%
Barometer: 29.99 inHg , 1015.6 hPa
Clouds: Mostly cloudy
Visibility: 10 miles , 16 km
Cloud details: Mostly cloudy 1500 ft
2020/12/03 10:55 KARV 031055Z AUTO 27006KT 10SM BKN015 00/M05 A2999 RMK AO2 T10011055
KTKV - Tomahawk Regnl, Wisconsin, USA
Distance from station: ESE 46mi, 74km
Updated: 12/03/2020 4:55am
Overcast
Overcast
 Wind from W
Wind: W 10 mph , 17 km/h
Temperature: 28°F , -2°C
Wind Chill: 19°F , -7°C
Dew Point: 23°F , -5°C
Humidity: 80%
Barometer: 30.03 inHg , 1016.9 hPa
Clouds: Overcast
Visibility: 10 miles , 16 km
Cloud details: Overcast 1600 ft
2020/12/03 10:55 KTKV 031055Z AUTO 28009KT 10SM OVC016 M02/M05 A3003 RMK AO2 T10171046 PWINO